sensor_id;sensor_type;location;lat;lon;timestamp;P1;durP1;ratioP1;P2;durP2;ratioP2
15192;SDS011;7697;51.630;7.484;2024-02-16T00:01:26;6.80;;;1.58;;
15192;SDS011;7697;51.630;7.484;2024-02-16T00:06:37;2.88;;;1.60;;
15192;SDS011;7697;51.630;7.484;2024-02-16T00:11:45;2.45;;;1.42;;
15192;SDS011;7697;51.630;7.484;2024-02-16T00:16:51;2.95;;;1.60;;
15192;SDS011;7697;51.630;7.484;2024-02-16T00:22:02;2.22;;;1.50;;
15192;SDS011;7697;51.630;7.484;2024-02-16T00:27:14;2.05;;;1.50;;
15192;SDS011;7697;51.630;7.484;2024-02-16T00:32:25;3.08;;;1.52;;
15192;SDS011;7697;51.630;7.484;2024-02-16T00:37:33;2.47;;;1.52;;
15192;SDS011;7697;51.630;7.484;2024-02-16T00:42:41;2.65;;;2.00;;
15192;SDS011;7697;51.630;7.484;2024-02-16T00:47:45;61.15;;;4.32;;
15192;SDS011;7697;51.630;7.484;2024-02-16T00:52:53;2.38;;;1.50;;
15192;SDS011;7697;51.630;7.484;2024-02-16T00:57:59;5.38;;;1.40;;
15192;SDS011;7697;51.630;7.484;2024-02-16T01:03:04;2.08;;;1.70;;
15192;SDS011;7697;51.630;7.484;2024-02-16T01:08:10;1.75;;;1.60;;
15192;SDS011;7697;51.630;7.484;2024-02-16T01:13:22;2.20;;;1.55;;
15192;SDS011;7697;51.630;7.484;2024-02-16T01:18:37;1.67;;;1.30;;
15192;SDS011;7697;51.630;7.484;2024-02-16T01:23:46;1.75;;;1.45;;
15192;SDS011;7697;51.630;7.484;2024-02-16T01:29:04;1.60;;;1.40;;
15192;SDS011;7697;51.630;7.484;2024-02-16T01:34:09;4.05;;;1.60;;
15192;SDS011;7697;51.630;7.484;2024-02-16T01:39:15;1.98;;;1.23;;
15192;SDS011;7697;51.630;7.484;2024-02-16T01:44:36;3.78;;;1.40;;
15192;SDS011;7697;51.630;7.484;2024-02-16T01:49:48;1.77;;;1.33;;
15192;SDS011;7697;51.630;7.484;2024-02-16T01:54:59;1.60;;;1.40;;
15192;SDS011;7697;51.630;7.484;2024-02-16T02:00:11;1.88;;;1.38;;
15192;SDS011;7697;51.630;7.484;2024-02-16T02:05:21;2.47;;;1.30;;
15192;SDS011;7697;51.630;7.484;2024-02-16T02:10:29;1.45;;;1.35;;
15192;SDS011;7697;51.630;7.484;2024-02-16T02:15:32;1.38;;;1.20;;
15192;SDS011;7697;51.630;7.484;2024-02-16T02:20:40;2.10;;;1.48;;
15192;SDS011;7697;51.630;7.484;2024-02-16T02:25:54;3.28;;;1.70;;
15192;SDS011;7697;51.630;7.484;2024-02-16T02:30:57;3.58;;;1.50;;
15192;SDS011;7697;51.630;7.484;2024-02-16T02:36:04;3.60;;;1.65;;
15192;SDS011;7697;51.630;7.484;2024-02-16T02:46:45;1.30;;;1.20;;
15192;SDS011;7697;51.630;7.484;2024-02-16T02:51:55;1.65;;;1.40;;
15192;SDS011;7697;51.630;7.484;2024-02-16T02:57:14;3.03;;;1.50;;
15192;SDS011;7697;51.630;7.484;2024-02-16T03:02:22;2.45;;;1.60;;
15192;SDS011;7697;51.630;7.484;2024-02-16T03:07:40;1.98;;;1.40;;
15192;SDS011;7697;51.630;7.484;2024-02-16T03:12:46;4.35;;;2.20;;
15192;SDS011;7697;51.630;7.484;2024-02-16T03:17:50;3.08;;;1.88;;
15192;SDS011;7697;51.630;7.484;2024-02-16T03:23:00;3.17;;;1.95;;
15192;SDS011;7697;51.630;7.484;2024-02-16T03:28:18;2.35;;;1.60;;
15192;SDS011;7697;51.630;7.484;2024-02-16T03:33:23;3.47;;;2.03;;
15192;SDS011;7697;51.630;7.484;2024-02-16T03:38:43;3.03;;;1.88;;
15192;SDS011;7697;51.630;7.484;2024-02-16T03:43:51;3.80;;;1.67;;
15192;SDS011;7697;51.630;7.484;2024-02-16T03:48:58;5.20;;;1.80;;
15192;SDS011;7697;51.630;7.484;2024-02-16T03:54:06;3.45;;;1.80;;
15192;SDS011;7697;51.630;7.484;2024-02-16T03:59:15;2.58;;;1.60;;
15192;SDS011;7697;51.630;7.484;2024-02-16T04:04:17;2.88;;;1.80;;
15192;SDS011;7697;51.630;7.484;2024-02-16T04:09:24;2.72;;;1.70;;
15192;SDS011;7697;51.630;7.484;2024-02-16T04:14:29;2.15;;;1.52;;
15192;SDS011;7697;51.630;7.484;2024-02-16T04:19:35;2.47;;;1.70;;
15192;SDS011;7697;51.630;7.484;2024-02-16T04:24:39;1.90;;;1.70;;
15192;SDS011;7697;51.630;7.484;2024-02-16T04:29:53;1.70;;;1.50;;
15192;SDS011;7697;51.630;7.484;2024-02-16T04:35:08;1.70;;;1.30;;
15192;SDS011;7697;51.630;7.484;2024-02-16T05:24:20;2.15;;;1.70;;
15192;SDS011;7697;51.630;7.484;2024-02-16T05:29:26;2.10;;;1.55;;
15192;SDS011;7697;51.630;7.484;2024-02-16T05:34:28;2.25;;;1.60;;
15192;SDS011;7697;51.630;7.484;2024-02-16T05:39:38;2.20;;;1.50;;
15192;SDS011;7697;51.630;7.484;2024-02-16T06:18:03;2.38;;;1.70;;
15192;SDS011;7697;51.630;7.484;2024-02-16T06:23:06;2.55;;;1.65;;
15192;SDS011;7697;51.630;7.484;2024-02-16T06:28:12;2.00;;;1.80;;
15192;SDS011;7697;51.630;7.484;2024-02-16T06:33:14;1.88;;;1.35;;
15192;SDS011;7697;51.630;7.484;2024-02-16T06:38:16;4.30;;;2.10;;
15192;SDS011;7697;51.630;7.484;2024-02-16T06:43:20;4.32;;;2.03;;
15192;SDS011;7697;51.630;7.484;2024-02-16T07:03:56;3.42;;;1.98;;
15192;SDS011;7697;51.630;7.484;2024-02-16T07:09:04;3.28;;;2.08;;
15192;SDS011;7697;51.630;7.484;2024-02-16T07:14:06;4.22;;;2.10;;
15192;SDS011;7697;51.630;7.484;2024-02-16T07:19:09;2.50;;;2.05;;
15192;SDS011;7697;51.630;7.484;2024-02-16T07:24:12;5.63;;;2.67;;
15192;SDS011;7697;51.630;7.484;2024-02-16T07:29:15;3.80;;;1.95;;
15192;SDS011;7697;51.630;7.484;2024-02-16T07:34:19;2.75;;;2.10;;
15192;SDS011;7697;51.630;7.484;2024-02-16T07:39:21;3.92;;;2.03;;
15192;SDS011;7697;51.630;7.484;2024-02-16T07:44:23;3.10;;;1.92;;
15192;SDS011;7697;51.630;7.484;2024-02-16T07:49:27;3.28;;;2.08;;
15192;SDS011;7697;51.630;7.484;2024-02-16T07:54:29;4.18;;;2.28;;
15192;SDS011;7697;51.630;7.484;2024-02-16T07:59:31;5.32;;;2.38;;
15192;SDS011;7697;51.630;7.484;2024-02-16T08:04:34;6.35;;;2.35;;
15192;SDS011;7697;51.630;7.484;2024-02-16T08:09:35;3.83;;;2.35;;
15192;SDS011;7697;51.630;7.484;2024-02-16T08:19:52;6.50;;;2.65;;
15192;SDS011;7697;51.630;7.484;2024-02-16T08:24:54;4.07;;;2.50;;
15192;SDS011;7697;51.630;7.484;2024-02-16T08:29:56;4.15;;;2.40;;
15192;SDS011;7697;51.630;7.484;2024-02-16T08:35:00;3.53;;;2.58;;
15192;SDS011;7697;51.630;7.484;2024-02-16T08:40:03;4.80;;;2.58;;
15192;SDS011;7697;51.630;7.484;2024-02-16T08:45:06;3.65;;;2.33;;
15192;SDS011;7697;51.630;7.484;2024-02-16T08:50:10;3.53;;;2.30;;
15192;SDS011;7697;51.630;7.484;2024-02-16T08:55:12;5.78;;;2.53;;
15192;SDS011;7697;51.630;7.484;2024-02-16T09:00:14;3.17;;;2.38;;
15192;SDS011;7697;51.630;7.484;2024-02-16T09:05:18;6.05;;;2.95;;
15192;SDS011;7697;51.630;7.484;2024-02-16T09:10:20;5.00;;;2.95;;
15192;SDS011;7697;51.630;7.484;2024-02-16T09:15:22;3.15;;;2.40;;
15192;SDS011;7697;51.630;7.484;2024-02-16T09:20:25;4.38;;;2.58;;
15192;SDS011;7697;51.630;7.484;2024-02-16T09:25:27;5.55;;;2.67;;
15192;SDS011;7697;51.630;7.484;2024-02-16T09:30:29;4.22;;;2.80;;
15192;SDS011;7697;51.630;7.484;2024-02-16T09:35:32;3.63;;;2.80;;
15192;SDS011;7697;51.630;7.484;2024-02-16T09:40:34;3.22;;;2.28;;
15192;SDS011;7697;51.630;7.484;2024-02-16T09:45:36;3.95;;;2.80;;
15192;SDS011;7697;51.630;7.484;2024-02-16T09:50:39;5.82;;;2.53;;
15192;SDS011;7697;51.630;7.484;2024-02-16T09:55:41;3.47;;;2.72;;
15192;SDS011;7697;51.630;7.484;2024-02-16T10:00:47;6.05;;;3.03;;
15192;SDS011;7697;51.630;7.484;2024-02-16T10:05:51;3.30;;;2.67;;
15192;SDS011;7697;51.630;7.484;2024-02-16T10:11:00;6.22;;;3.63;;
15192;SDS011;7697;51.630;7.484;2024-02-16T10:16:05;3.63;;;2.33;;
15192;SDS011;7697;51.630;7.484;2024-02-16T10:21:10;8.30;;;3.10;;
15192;SDS011;7697;51.630;7.484;2024-02-16T10:26:12;6.53;;;3.25;;
15192;SDS011;7697;51.630;7.484;2024-02-16T10:31:14;6.05;;;3.10;;
15192;SDS011;7697;51.630;7.484;2024-02-16T10:36:17;5.40;;;2.60;;
15192;SDS011;7697;51.630;7.484;2024-02-16T10:41:19;5.03;;;2.90;;
15192;SDS011;7697;51.630;7.484;2024-02-16T10:46:23;5.90;;;2.85;;
15192;SDS011;7697;51.630;7.484;2024-02-16T10:51:28;6.68;;;2.70;;
15192;SDS011;7697;51.630;7.484;2024-02-16T10:56:33;5.40;;;2.53;;
15192;SDS011;7697;51.630;7.484;2024-02-16T11:01:38;5.38;;;2.60;;
15192;SDS011;7697;51.630;7.484;2024-02-16T11:06:48;6.55;;;2.90;;
15192;SDS011;7697;51.630;7.484;2024-02-16T11:11:53;5.05;;;2.58;;
15192;SDS011;7697;51.630;7.484;2024-02-16T11:16:56;4.18;;;2.75;;
15192;SDS011;7697;51.630;7.484;2024-02-16T11:22:02;8.20;;;3.20;;
15192;SDS011;7697;51.630;7.484;2024-02-16T11:27:07;5.00;;;2.55;;
15192;SDS011;7697;51.630;7.484;2024-02-16T11:32:11;6.25;;;2.95;;
15192;SDS011;7697;51.630;7.484;2024-02-16T11:37:14;6.28;;;3.10;;
15192;SDS011;7697;51.630;7.484;2024-02-16T11:42:18;5.55;;;2.63;;
15192;SDS011;7697;51.630;7.484;2024-02-16T11:47:21;5.97;;;3.30;;
15192;SDS011;7697;51.630;7.484;2024-02-16T11:52:26;4.97;;;3.17;;
15192;SDS011;7697;51.630;7.484;2024-02-16T11:57:28;6.75;;;3.20;;
15192;SDS011;7697;51.630;7.484;2024-02-16T12:02:30;4.75;;;2.97;;
15192;SDS011;7697;51.630;7.484;2024-02-16T12:07:33;3.70;;;2.80;;
15192;SDS011;7697;51.630;7.484;2024-02-16T12:12:39;4.75;;;2.67;;
15192;SDS011;7697;51.630;7.484;2024-02-16T12:17:42;3.92;;;2.95;;
15192;SDS011;7697;51.630;7.484;2024-02-16T12:22:45;6.40;;;2.92;;
15192;SDS011;7697;51.630;7.484;2024-02-16T12:27:47;7.85;;;2.88;;
15192;SDS011;7697;51.630;7.484;2024-02-16T12:32:49;4.97;;;2.95;;
15192;SDS011;7697;51.630;7.484;2024-02-16T12:37:52;4.93;;;2.90;;
15192;SDS011;7697;51.630;7.484;2024-02-16T12:42:54;5.85;;;3.10;;
15192;SDS011;7697;51.630;7.484;2024-02-16T12:47:55;6.05;;;3.08;;
15192;SDS011;7697;51.630;7.484;2024-02-16T12:52:58;4.30;;;3.25;;
15192;SDS011;7697;51.630;7.484;2024-02-16T12:58:00;4.75;;;2.70;;
15192;SDS011;7697;51.630;7.484;2024-02-16T13:03:02;4.07;;;2.85;;
15192;SDS011;7697;51.630;7.484;2024-02-16T13:08:06;8.15;;;3.17;;
15192;SDS011;7697;51.630;7.484;2024-02-16T13:13:08;7.13;;;3.40;;
15192;SDS011;7697;51.630;7.484;2024-02-16T13:18:09;6.10;;;3.20;;
15192;SDS011;7697;51.630;7.484;2024-02-16T13:23:13;8.98;;;3.88;;
15192;SDS011;7697;51.630;7.484;2024-02-16T13:28:14;7.20;;;3.33;;
15192;SDS011;7697;51.630;7.484;2024-02-16T13:33:17;6.35;;;3.35;;
15192;SDS011;7697;51.630;7.484;2024-02-16T13:38:20;7.80;;;3.83;;
15192;SDS011;7697;51.630;7.484;2024-02-16T13:43:22;6.90;;;3.30;;
15192;SDS011;7697;51.630;7.484;2024-02-16T13:48:24;6.90;;;3.05;;
15192;SDS011;7697;51.630;7.484;2024-02-16T13:53:27;10.40;;;4.57;;
15192;SDS011;7697;51.630;7.484;2024-02-16T13:58:29;7.25;;;4.57;;
15192;SDS011;7697;51.630;7.484;2024-02-16T14:03:31;8.98;;;4.53;;
15192;SDS011;7697;51.630;7.484;2024-02-16T14:08:35;7.47;;;4.53;;
15192;SDS011;7697;51.630;7.484;2024-02-16T14:13:39;7.15;;;4.70;;
15192;SDS011;7697;51.630;7.484;2024-02-16T14:18:41;8.90;;;5.53;;
15192;SDS011;7697;51.630;7.484;2024-02-16T14:28:55;8.32;;;6.30;;
15192;SDS011;7697;51.630;7.484;2024-02-16T14:33:59;7.20;;;5.15;;
15192;SDS011;7697;51.630;7.484;2024-02-16T14:39:03;6.25;;;5.60;;
15192;SDS011;7697;51.630;7.484;2024-02-16T14:44:08;7.72;;;6.53;;
15192;SDS011;7697;51.630;7.484;2024-02-16T14:49:11;8.88;;;7.40;;
15192;SDS011;7697;51.630;7.484;2024-02-16T14:54:21;8.18;;;6.88;;
15192;SDS011;7697;51.630;7.484;2024-02-16T14:59:28;7.07;;;6.35;;
15192;SDS011;7697;51.630;7.484;2024-02-16T15:04:37;7.60;;;6.80;;
15192;SDS011;7697;51.630;7.484;2024-02-16T15:09:56;7.10;;;5.75;;
15192;SDS011;7697;51.630;7.484;2024-02-16T15:15:06;6.90;;;5.63;;
15192;SDS011;7697;51.630;7.484;2024-02-16T15:20:10;6.70;;;5.85;;
15192;SDS011;7697;51.630;7.484;2024-02-16T15:25:38;5.93;;;5.25;;
15192;SDS011;7697;51.630;7.484;2024-02-16T15:30:45;7.28;;;5.60;;
15192;SDS011;7697;51.630;7.484;2024-02-16T15:35:50;5.90;;;5.32;;
15192;SDS011;7697;51.630;7.484;2024-02-16T15:40:57;6.03;;;5.43;;
15192;SDS011;7697;51.630;7.484;2024-02-16T15:46:03;5.90;;;5.32;;
15192;SDS011;7697;51.630;7.484;2024-02-16T15:51:07;6.40;;;5.72;;
15192;SDS011;7697;51.630;7.484;2024-02-16T15:56:15;5.88;;;4.85;;
15192;SDS011;7697;51.630;7.484;2024-02-16T16:01:26;5.72;;;5.13;;
15192;SDS011;7697;51.630;7.484;2024-02-16T16:06:32;5.10;;;4.70;;
15192;SDS011;7697;51.630;7.484;2024-02-16T16:11:42;6.15;;;4.50;;
15192;SDS011;7697;51.630;7.484;2024-02-16T16:17:02;6.07;;;4.75;;
15192;SDS011;7697;51.630;7.484;2024-02-16T16:22:11;4.35;;;3.95;;
15192;SDS011;7697;51.630;7.484;2024-02-16T16:27:26;5.30;;;4.53;;
15192;SDS011;7697;51.630;7.484;2024-02-16T16:32:33;4.68;;;4.28;;
15192;SDS011;7697;51.630;7.484;2024-02-16T16:37:42;5.57;;;4.97;;
15192;SDS011;7697;51.630;7.484;2024-02-16T16:42:49;5.45;;;4.93;;
15192;SDS011;7697;51.630;7.484;2024-02-16T16:48:00;4.68;;;4.25;;
15192;SDS011;7697;51.630;7.484;2024-02-16T16:53:20;5.90;;;5.13;;
15192;SDS011;7697;51.630;7.484;2024-02-16T16:58:47;5.57;;;4.72;;
15192;SDS011;7697;51.630;7.484;2024-02-16T17:09:44;7.57;;;4.70;;
15192;SDS011;7697;51.630;7.484;2024-02-16T17:15:01;5.07;;;4.60;;
15192;SDS011;7697;51.630;7.484;2024-02-16T17:25:43;5.28;;;4.00;;
15192;SDS011;7697;51.630;7.484;2024-02-16T17:30:48;4.93;;;4.43;;
15192;SDS011;7697;51.630;7.484;2024-02-16T17:35:53;5.10;;;4.60;;
15192;SDS011;7697;51.630;7.484;2024-02-16T17:40:57;4.68;;;4.18;;
15192;SDS011;7697;51.630;7.484;2024-02-16T17:46:03;3.97;;;3.67;;
15192;SDS011;7697;51.630;7.484;2024-02-16T17:51:08;4.30;;;3.90;;
15192;SDS011;7697;51.630;7.484;2024-02-16T17:56:11;3.70;;;3.40;;
15192;SDS011;7697;51.630;7.484;2024-02-16T18:01:16;3.65;;;3.35;;
15192;SDS011;7697;51.630;7.484;2024-02-16T18:06:20;4.82;;;4.30;;
15192;SDS011;7697;51.630;7.484;2024-02-16T18:11:22;4.10;;;3.70;;
15192;SDS011;7697;51.630;7.484;2024-02-16T18:16:24;3.20;;;2.92;;
15192;SDS011;7697;51.630;7.484;2024-02-16T18:21:29;3.92;;;3.63;;
15192;SDS011;7697;51.630;7.484;2024-02-16T18:26:31;4.70;;;4.30;;
15192;SDS011;7697;51.630;7.484;2024-02-16T18:31:34;6.07;;;5.50;;
15192;SDS011;7697;51.630;7.484;2024-02-16T18:36:39;5.88;;;5.38;;
15192;SDS011;7697;51.630;7.484;2024-02-16T18:41:41;5.43;;;4.90;;
15192;SDS011;7697;51.630;7.484;2024-02-16T18:46:49;5.57;;;5.07;;
15192;SDS011;7697;51.630;7.484;2024-02-16T18:51:52;5.40;;;4.47;;
15192;SDS011;7697;51.630;7.484;2024-02-16T18:56:55;5.00;;;4.50;;
15192;SDS011;7697;51.630;7.484;2024-02-16T19:01:57;5.75;;;5.15;;
15192;SDS011;7697;51.630;7.484;2024-02-16T19:07:03;5.00;;;4.60;;
15192;SDS011;7697;51.630;7.484;2024-02-16T19:12:06;4.45;;;4.05;;
15192;SDS011;7697;51.630;7.484;2024-02-16T19:17:09;4.05;;;3.65;;
15192;SDS011;7697;51.630;7.484;2024-02-16T19:22:13;4.80;;;4.40;;
15192;SDS011;7697;51.630;7.484;2024-02-16T19:27:16;4.90;;;4.45;;
15192;SDS011;7697;51.630;7.484;2024-02-16T19:32:20;5.20;;;4.70;;
15192;SDS011;7697;51.630;7.484;2024-02-16T19:37:24;8.02;;;6.55;;
15192;SDS011;7697;51.630;7.484;2024-02-16T19:42:28;5.97;;;5.38;;
15192;SDS011;7697;51.630;7.484;2024-02-16T19:47:33;5.90;;;5.15;;
15192;SDS011;7697;51.630;7.484;2024-02-16T19:52:40;6.43;;;5.82;;
15192;SDS011;7697;51.630;7.484;2024-02-16T19:57:42;6.10;;;5.50;;
15192;SDS011;7697;51.630;7.484;2024-02-16T20:02:45;7.10;;;6.43;;
15192;SDS011;7697;51.630;7.484;2024-02-16T20:07:49;8.23;;;7.05;;
15192;SDS011;7697;51.630;7.484;2024-02-16T20:12:52;5.95;;;5.35;;
15192;SDS011;7697;51.630;7.484;2024-02-16T20:17:54;5.50;;;5.00;;
15192;SDS011;7697;51.630;7.484;2024-02-16T20:23:02;5.80;;;5.30;;
15192;SDS011;7697;51.630;7.484;2024-02-16T20:28:05;6.18;;;5.68;;
15192;SDS011;7697;51.630;7.484;2024-02-16T20:33:07;5.70;;;5.20;;
15192;SDS011;7697;51.630;7.484;2024-02-16T20:38:13;6.30;;;5.70;;
15192;SDS011;7697;51.630;7.484;2024-02-16T20:43:15;6.80;;;5.63;;
15192;SDS011;7697;51.630;7.484;2024-02-16T20:48:18;6.38;;;5.78;;
15192;SDS011;7697;51.630;7.484;2024-02-16T20:53:24;6.57;;;6.03;;
15192;SDS011;7697;51.630;7.484;2024-02-16T20:58:26;7.18;;;6.47;;
15192;SDS011;7697;51.630;7.484;2024-02-16T21:03:29;6.30;;;5.80;;
15192;SDS011;7697;51.630;7.484;2024-02-16T21:08:33;5.63;;;5.13;;
15192;SDS011;7697;51.630;7.484;2024-02-16T21:13:37;5.95;;;5.45;;
15192;SDS011;7697;51.630;7.484;2024-02-16T21:18:40;5.63;;;5.13;;
15192;SDS011;7697;51.630;7.484;2024-02-16T21:23:43;5.93;;;5.20;;
15192;SDS011;7697;51.630;7.484;2024-02-16T21:28:46;5.25;;;4.75;;
15192;SDS011;7697;51.630;7.484;2024-02-16T21:33:49;6.25;;;5.65;;
15192;SDS011;7697;51.630;7.484;2024-02-16T21:38:53;7.55;;;6.32;;
15192;SDS011;7697;51.630;7.484;2024-02-16T21:43:55;6.38;;;5.78;;
15192;SDS011;7697;51.630;7.484;2024-02-16T21:48:58;7.72;;;7.00;;
15192;SDS011;7697;51.630;7.484;2024-02-16T21:54:04;8.23;;;7.43;;
15192;SDS011;7697;51.630;7.484;2024-02-16T21:59:07;9.45;;;8.07;;
15192;SDS011;7697;51.630;7.484;2024-02-16T22:04:10;9.43;;;8.52;;
15192;SDS011;7697;51.630;7.484;2024-02-16T22:09:13;10.60;;;9.60;;
15192;SDS011;7697;51.630;7.484;2024-02-16T22:14:40;11.38;;;10.27;;
15192;SDS011;7697;51.630;7.484;2024-02-16T22:19:43;12.82;;;11.50;;
15192;SDS011;7697;51.630;7.484;2024-02-16T22:24:45;13.02;;;11.73;;
15192;SDS011;7697;51.630;7.484;2024-02-16T22:29:49;14.15;;;12.75;;
15192;SDS011;7697;51.630;7.484;2024-02-16T22:34:52;15.95;;;14.07;;
15192;SDS011;7697;51.630;7.484;2024-02-16T22:39:54;15.48;;;13.88;;
15192;SDS011;7697;51.630;7.484;2024-02-16T22:44:58;14.32;;;12.82;;
15192;SDS011;7697;51.630;7.484;2024-02-16T22:50:00;15.65;;;14.07;;
15192;SDS011;7697;51.630;7.484;2024-02-16T22:55:03;15.40;;;13.77;;
15192;SDS011;7697;51.630;7.484;2024-02-16T23:00:08;18.70;;;16.70;;
15192;SDS011;7697;51.630;7.484;2024-02-16T23:05:23;20.08;;;17.52;;
15192;SDS011;7697;51.630;7.484;2024-02-16T23:10:25;19.73;;;17.63;;
15192;SDS011;7697;51.630;7.484;2024-02-16T23:15:30;20.67;;;17.92;;
15192;SDS011;7697;51.630;7.484;2024-02-16T23:20:33;21.27;;;18.38;;
15192;SDS011;7697;51.630;7.484;2024-02-16T23:25:36;20.73;;;17.40;;
15192;SDS011;7697;51.630;7.484;2024-02-16T23:30:42;19.83;;;17.38;;
15192;SDS011;7697;51.630;7.484;2024-02-16T23:35:45;21.35;;;17.52;;
15192;SDS011;7697;51.630;7.484;2024-02-16T23:40:48;21.45;;;17.52;;
15192;SDS011;7697;51.630;7.484;2024-02-16T23:45:52;18.50;;;16.38;;
15192;SDS011;7697;51.630;7.484;2024-02-16T23:50:57;20.38;;;16.73;;
15192;SDS011;7697;51.630;7.484;2024-02-16T23:56:00;20.55;;;18.17;;
